sensor_id;sensor_type;location;lat;lon;timestamp;P1;durP1;ratioP1;P2;durP2;ratioP2
40256;SDS011;25977;45.462;9.210;2023-05-29T00:00:06;2.67;;;2.47;;
40256;SDS011;25977;45.462;9.210;2023-05-29T00:02:35;2.85;;;2.65;;
40256;SDS011;25977;45.462;9.210;2023-05-29T00:05:01;2.70;;;2.50;;
40256;SDS011;25977;45.462;9.210;2023-05-29T00:07:30;3.33;;;2.30;;
40256;SDS011;25977;45.462;9.210;2023-05-29T00:09:59;3.88;;;2.63;;
40256;SDS011;25977;45.462;9.210;2023-05-29T00:12:25;3.45;;;3.10;;
40256;SDS011;25977;45.462;9.210;2023-05-29T00:14:51;2.53;;;2.33;;
40256;SDS011;25977;45.462;9.210;2023-05-29T00:17:16;2.75;;;2.28;;
40256;SDS011;25977;45.462;9.210;2023-05-29T00:19:42;3.17;;;2.75;;
40256;SDS011;25977;45.462;9.210;2023-05-29T00:22:08;3.10;;;2.65;;
40256;SDS011;25977;45.462;9.210;2023-05-29T00:24:34;2.22;;;2.03;;
40256;SDS011;25977;45.462;9.210;2023-05-29T00:26:59;2.17;;;2.00;;
40256;SDS011;25977;45.462;9.210;2023-05-29T00:29:26;2.08;;;1.90;;
40256;SDS011;25977;45.462;9.210;2023-05-29T00:31:53;1.80;;;1.70;;
40256;SDS011;25977;45.462;9.210;2023-05-29T00:34:21;2.55;;;2.35;;
40256;SDS011;25977;45.462;9.210;2023-05-29T00:36:48;2.90;;;2.70;;
40256;SDS011;25977;45.462;9.210;2023-05-29T00:39:14;2.38;;;2.00;;
40256;SDS011;25977;45.462;9.210;2023-05-29T00:41:40;2.58;;;2.38;;
40256;SDS011;25977;45.462;9.210;2023-05-29T00:44:06;2.75;;;2.55;;
40256;SDS011;25977;45.462;9.210;2023-05-29T00:46:32;2.70;;;2.50;;
40256;SDS011;25977;45.462;9.210;2023-05-29T00:48:58;2.35;;;2.10;;
40256;SDS011;25977;45.462;9.210;2023-05-29T00:51:25;2.10;;;2.00;;
40256;SDS011;25977;45.462;9.210;2023-05-29T00:53:52;2.42;;;2.20;;
40256;SDS011;25977;45.462;9.210;2023-05-29T00:56:19;2.95;;;2.25;;
40256;SDS011;25977;45.462;9.210;2023-05-29T00:58:46;3.15;;;2.35;;
40256;SDS011;25977;45.462;9.210;2023-05-29T01:01:14;2.38;;;2.15;;
40256;SDS011;25977;45.462;9.210;2023-05-29T01:03:42;3.08;;;2.65;;
40256;SDS011;25977;45.462;9.210;2023-05-29T01:06:08;2.58;;;2.38;;
40256;SDS011;25977;45.462;9.210;2023-05-29T01:08:35;2.63;;;2.42;;
40256;SDS011;25977;45.462;9.210;2023-05-29T01:11:05;2.97;;;2.42;;
40256;SDS011;25977;45.462;9.210;2023-05-29T01:13:45;2.55;;;2.35;;
40256;SDS011;25977;45.462;9.210;2023-05-29T01:16:18;3.55;;;3.25;;
40256;SDS011;25977;45.462;9.210;2023-05-29T01:19:05;2.65;;;2.45;;
40256;SDS011;25977;45.462;9.210;2023-05-29T01:24:49;3.33;;;3.03;;
40256;SDS011;25977;45.462;9.210;2023-05-29T01:27:24;5.30;;;3.42;;
40256;SDS011;25977;45.462;9.210;2023-05-29T01:29:51;3.03;;;2.80;;
40256;SDS011;25977;45.462;9.210;2023-05-29T01:32:19;3.97;;;3.40;;
40256;SDS011;25977;45.462;9.210;2023-05-29T01:34:46;3.95;;;3.33;;
40256;SDS011;25977;45.462;9.210;2023-05-29T01:37:12;3.40;;;3.10;;
40256;SDS011;25977;45.462;9.210;2023-05-29T01:39:38;4.38;;;3.47;;
40256;SDS011;25977;45.462;9.210;2023-05-29T01:42:04;3.60;;;3.30;;
40256;SDS011;25977;45.462;9.210;2023-05-29T01:44:33;4.20;;;3.58;;
40256;SDS011;25977;45.462;9.210;2023-05-29T01:47:00;3.78;;;3.47;;
40256;SDS011;25977;45.462;9.210;2023-05-29T01:49:27;3.55;;;3.28;;
40256;SDS011;25977;45.462;9.210;2023-05-29T01:51:54;4.47;;;3.72;;
40256;SDS011;25977;45.462;9.210;2023-05-29T01:54:20;3.95;;;3.55;;
40256;SDS011;25977;45.462;9.210;2023-05-29T01:56:46;3.83;;;3.45;;
40256;SDS011;25977;45.462;9.210;2023-05-29T01:59:13;3.92;;;3.40;;
40256;SDS011;25977;45.462;9.210;2023-05-29T02:01:39;4.30;;;3.90;;
40256;SDS011;25977;45.462;9.210;2023-05-29T02:04:05;4.15;;;3.72;;
40256;SDS011;25977;45.462;9.210;2023-05-29T02:06:31;3.83;;;3.20;;
40256;SDS011;25977;45.462;9.210;2023-05-29T02:08:58;4.03;;;3.38;;
40256;SDS011;25977;45.462;9.210;2023-05-29T02:11:24;4.72;;;4.03;;
40256;SDS011;25977;45.462;9.210;2023-05-29T02:13:51;3.92;;;3.55;;
40256;SDS011;25977;45.462;9.210;2023-05-29T02:16:17;4.53;;;4.13;;
40256;SDS011;25977;45.462;9.210;2023-05-29T02:18:45;4.15;;;3.83;;
40256;SDS011;25977;45.462;9.210;2023-05-29T02:21:12;3.15;;;2.95;;
40256;SDS011;25977;45.462;9.210;2023-05-29T02:23:38;4.13;;;3.70;;
40256;SDS011;25977;45.462;9.210;2023-05-29T02:26:04;8.35;;;4.35;;
40256;SDS011;25977;45.462;9.210;2023-05-29T02:28:30;4.10;;;3.60;;
40256;SDS011;25977;45.462;9.210;2023-05-29T02:30:56;4.75;;;4.35;;
40256;SDS011;25977;45.462;9.210;2023-05-29T02:33:21;4.82;;;4.18;;
40256;SDS011;25977;45.462;9.210;2023-05-29T02:35:47;5.22;;;3.80;;
40256;SDS011;25977;45.462;9.210;2023-05-29T02:38:13;4.20;;;3.80;;
40256;SDS011;25977;45.462;9.210;2023-05-29T02:40:39;7.40;;;3.65;;
40256;SDS011;25977;45.462;9.210;2023-05-29T02:43:05;4.20;;;3.80;;
40256;SDS011;25977;45.462;9.210;2023-05-29T02:45:33;3.80;;;3.50;;
40256;SDS011;25977;45.462;9.210;2023-05-29T02:47:59;5.03;;;3.72;;
40256;SDS011;25977;45.462;9.210;2023-05-29T02:50:25;4.35;;;4.03;;
40256;SDS011;25977;45.462;9.210;2023-05-29T02:52:51;4.25;;;3.92;;
40256;SDS011;25977;45.462;9.210;2023-05-29T02:55:17;4.95;;;3.53;;
40256;SDS011;25977;45.462;9.210;2023-05-29T02:57:43;4.60;;;3.85;;
40256;SDS011;25977;45.462;9.210;2023-05-29T03:00:09;4.13;;;3.35;;
40256;SDS011;25977;45.462;9.210;2023-05-29T03:02:36;3.65;;;3.35;;
40256;SDS011;25977;45.462;9.210;2023-05-29T03:05:01;4.50;;;3.15;;
40256;SDS011;25977;45.462;9.210;2023-05-29T03:07:28;3.95;;;3.47;;
40256;SDS011;25977;45.462;9.210;2023-05-29T03:09:54;4.60;;;4.03;;
40256;SDS011;25977;45.462;9.210;2023-05-29T03:12:21;4.45;;;4.05;;
40256;SDS011;25977;45.462;9.210;2023-05-29T03:14:47;3.42;;;3.13;;
40256;SDS011;25977;45.462;9.210;2023-05-29T03:17:13;3.90;;;3.60;;
40256;SDS011;25977;45.462;9.210;2023-05-29T03:19:39;5.60;;;4.78;;
40256;SDS011;25977;45.462;9.210;2023-05-29T03:22:04;4.72;;;4.32;;
40256;SDS011;25977;45.462;9.210;2023-05-29T03:24:32;5.70;;;3.97;;
40256;SDS011;25977;45.462;9.210;2023-05-29T03:27:00;6.00;;;3.53;;
40256;SDS011;25977;45.462;9.210;2023-05-29T03:29:29;4.32;;;3.97;;
40256;SDS011;25977;45.462;9.210;2023-05-29T03:32:00;7.60;;;4.13;;
40256;SDS011;25977;45.462;9.210;2023-05-29T03:34:29;4.80;;;4.40;;
40256;SDS011;25977;45.462;9.210;2023-05-29T03:36:56;4.82;;;4.18;;
40256;SDS011;25977;45.462;9.210;2023-05-29T03:39:23;4.40;;;4.00;;
40256;SDS011;25977;45.462;9.210;2023-05-29T03:41:49;6.57;;;4.50;;
40256;SDS011;25977;45.462;9.210;2023-05-29T03:44:18;5.07;;;4.00;;
40256;SDS011;25977;45.462;9.210;2023-05-29T03:46:43;4.90;;;4.20;;
40256;SDS011;25977;45.462;9.210;2023-05-29T03:49:10;5.53;;;4.07;;
40256;SDS011;25977;45.462;9.210;2023-05-29T03:51:36;7.05;;;4.32;;
40256;SDS011;25977;45.462;9.210;2023-05-29T03:54:03;4.18;;;3.83;;
40256;SDS011;25977;45.462;9.210;2023-05-29T03:56:29;5.07;;;4.60;;
40256;SDS011;25977;45.462;9.210;2023-05-29T03:58:55;8.60;;;4.10;;
40256;SDS011;25977;45.462;9.210;2023-05-29T04:01:21;5.50;;;4.13;;
40256;SDS011;25977;45.462;9.210;2023-05-29T04:03:46;6.07;;;4.53;;
40256;SDS011;25977;45.462;9.210;2023-05-29T04:06:13;5.15;;;3.97;;
40256;SDS011;25977;45.462;9.210;2023-05-29T04:08:39;4.35;;;3.65;;
40256;SDS011;25977;45.462;9.210;2023-05-29T04:11:05;5.90;;;4.72;;
40256;SDS011;25977;45.462;9.210;2023-05-29T04:13:30;4.50;;;4.07;;
40256;SDS011;25977;45.462;9.210;2023-05-29T04:15:56;4.43;;;4.03;;
40256;SDS011;25977;45.462;9.210;2023-05-29T04:18:22;4.20;;;3.80;;
40256;SDS011;25977;45.462;9.210;2023-05-29T04:20:48;4.22;;;3.60;;
40256;SDS011;25977;45.462;9.210;2023-05-29T04:23:14;5.63;;;4.00;;
40256;SDS011;25977;45.462;9.210;2023-05-29T04:25:39;5.10;;;3.92;;
40256;SDS011;25977;45.462;9.210;2023-05-29T04:28:05;5.28;;;4.15;;
40256;SDS011;25977;45.462;9.210;2023-05-29T04:30:31;5.88;;;4.03;;
40256;SDS011;25977;45.462;9.210;2023-05-29T04:32:59;8.20;;;4.43;;
40256;SDS011;25977;45.462;9.210;2023-05-29T04:35:25;8.05;;;5.47;;
40256;SDS011;25977;45.462;9.210;2023-05-29T04:37:57;10.65;;;6.97;;
40256;SDS011;25977;45.462;9.210;2023-05-29T04:40:25;6.90;;;5.90;;
40256;SDS011;25977;45.462;9.210;2023-05-29T04:42:51;6.90;;;5.70;;
40256;SDS011;25977;45.462;9.210;2023-05-29T04:45:19;6.72;;;5.25;;
40256;SDS011;25977;45.462;9.210;2023-05-29T04:47:46;6.18;;;5.53;;
40256;SDS011;25977;45.462;9.210;2023-05-29T04:50:15;12.77;;;5.75;;
40256;SDS011;25977;45.462;9.210;2023-05-29T04:52:43;11.13;;;6.10;;
40256;SDS011;25977;45.462;9.210;2023-05-29T04:55:09;9.57;;;5.93;;
40256;SDS011;25977;45.462;9.210;2023-05-29T04:57:36;10.55;;;7.05;;
40256;SDS011;25977;45.462;9.210;2023-05-29T05:00:03;7.28;;;6.40;;
40256;SDS011;25977;45.462;9.210;2023-05-29T05:02:41;7.45;;;5.30;;
40256;SDS011;25977;45.462;9.210;2023-05-29T05:05:08;5.85;;;5.18;;
40256;SDS011;25977;45.462;9.210;2023-05-29T05:07:34;6.70;;;4.93;;
40256;SDS011;25977;45.462;9.210;2023-05-29T05:10:00;8.23;;;4.55;;
40256;SDS011;25977;45.462;9.210;2023-05-29T05:12:27;7.18;;;5.05;;
40256;SDS011;25977;45.462;9.210;2023-05-29T05:14:53;8.45;;;4.22;;
40256;SDS011;25977;45.462;9.210;2023-05-29T05:17:18;12.68;;;4.50;;
40256;SDS011;25977;45.462;9.210;2023-05-29T05:19:45;6.03;;;4.35;;
40256;SDS011;25977;45.462;9.210;2023-05-29T05:22:11;10.27;;;4.20;;
40256;SDS011;25977;45.462;9.210;2023-05-29T05:24:37;8.20;;;5.25;;
40256;SDS011;25977;45.462;9.210;2023-05-29T05:27:03;5.32;;;4.60;;
40256;SDS011;25977;45.462;9.210;2023-05-29T05:29:30;6.63;;;4.38;;
40256;SDS011;25977;45.462;9.210;2023-05-29T05:31:56;6.90;;;4.57;;
40256;SDS011;25977;45.462;9.210;2023-05-29T05:34:22;8.32;;;5.18;;
40256;SDS011;25977;45.462;9.210;2023-05-29T05:36:48;5.70;;;4.65;;
40256;SDS011;25977;45.462;9.210;2023-05-29T05:39:14;9.40;;;5.78;;
40256;SDS011;25977;45.462;9.210;2023-05-29T05:41:43;5.32;;;4.70;;
40256;SDS011;25977;45.462;9.210;2023-05-29T05:44:13;7.38;;;5.03;;
40256;SDS011;25977;45.462;9.210;2023-05-29T05:46:43;8.68;;;4.38;;
40256;SDS011;25977;45.462;9.210;2023-05-29T05:49:10;5.30;;;4.78;;
40256;SDS011;25977;45.462;9.210;2023-05-29T05:51:36;6.38;;;4.53;;
40256;SDS011;25977;45.462;9.210;2023-05-29T05:54:01;6.35;;;4.90;;
40256;SDS011;25977;45.462;9.210;2023-05-29T05:56:29;8.95;;;5.63;;
40256;SDS011;25977;45.462;9.210;2023-05-29T05:58:55;5.93;;;4.60;;
40256;SDS011;25977;45.462;9.210;2023-05-29T06:01:21;7.85;;;5.15;;
40256;SDS011;25977;45.462;9.210;2023-05-29T06:03:48;6.38;;;5.30;;
40256;SDS011;25977;45.462;9.210;2023-05-29T06:06:14;9.77;;;6.20;;
40256;SDS011;25977;45.462;9.210;2023-05-29T06:08:48;8.18;;;5.32;;
40256;SDS011;25977;45.462;9.210;2023-05-29T06:11:14;5.93;;;4.90;;
40256;SDS011;25977;45.462;9.210;2023-05-29T06:13:43;5.35;;;4.78;;
40256;SDS011;25977;45.462;9.210;2023-05-29T06:16:16;8.07;;;5.32;;
40256;SDS011;25977;45.462;9.210;2023-05-29T06:18:42;6.32;;;4.45;;
40256;SDS011;25977;45.462;9.210;2023-05-29T06:21:08;5.47;;;4.90;;
40256;SDS011;25977;45.462;9.210;2023-05-29T06:23:37;5.90;;;4.78;;
40256;SDS011;25977;45.462;9.210;2023-05-29T06:26:03;8.63;;;4.78;;
40256;SDS011;25977;45.462;9.210;2023-05-29T06:28:29;6.45;;;4.38;;
40256;SDS011;25977;45.462;9.210;2023-05-29T06:30:55;6.15;;;4.75;;
40256;SDS011;25977;45.462;9.210;2023-05-29T06:33:22;4.95;;;4.45;;
40256;SDS011;25977;45.462;9.210;2023-05-29T06:35:49;6.75;;;4.28;;
40256;SDS011;25977;45.462;9.210;2023-05-29T06:38:14;7.38;;;4.93;;
40256;SDS011;25977;45.462;9.210;2023-05-29T06:40:40;5.85;;;4.78;;
40256;SDS011;25977;45.462;9.210;2023-05-29T06:43:06;6.50;;;5.18;;
40256;SDS011;25977;45.462;9.210;2023-05-29T06:45:38;6.15;;;4.80;;
40256;SDS011;25977;45.462;9.210;2023-05-29T06:48:04;7.85;;;5.10;;
40256;SDS011;25977;45.462;9.210;2023-05-29T06:50:31;7.95;;;5.57;;
40256;SDS011;25977;45.462;9.210;2023-05-29T06:53:04;9.73;;;5.45;;
40256;SDS011;25977;45.462;9.210;2023-05-29T06:55:42;6.93;;;4.95;;
40256;SDS011;25977;45.462;9.210;2023-05-29T06:58:08;8.75;;;5.20;;
40256;SDS011;25977;45.462;9.210;2023-05-29T07:00:33;7.75;;;5.90;;
40256;SDS011;25977;45.462;9.210;2023-05-29T07:03:18;6.43;;;5.53;;
40256;SDS011;25977;45.462;9.210;2023-05-29T07:05:44;7.20;;;5.68;;
40256;SDS011;25977;45.462;9.210;2023-05-29T07:08:10;8.68;;;5.65;;
40256;SDS011;25977;45.462;9.210;2023-05-29T07:10:35;7.38;;;6.47;;
40256;SDS011;25977;45.462;9.210;2023-05-29T07:13:01;6.78;;;5.65;;
40256;SDS011;25977;45.462;9.210;2023-05-29T07:15:27;11.02;;;6.50;;
40256;SDS011;25977;45.462;9.210;2023-05-29T07:17:53;13.35;;;5.70;;
40256;SDS011;25977;45.462;9.210;2023-05-29T07:20:23;9.23;;;6.20;;
40256;SDS011;25977;45.462;9.210;2023-05-29T07:22:49;8.05;;;7.18;;
40256;SDS011;25977;45.462;9.210;2023-05-29T07:25:15;15.23;;;7.10;;
40256;SDS011;25977;45.462;9.210;2023-05-29T07:27:42;8.75;;;6.93;;
40256;SDS011;25977;45.462;9.210;2023-05-29T07:30:08;7.40;;;6.65;;
40256;SDS011;25977;45.462;9.210;2023-05-29T07:32:35;10.88;;;7.63;;
40256;SDS011;25977;45.462;9.210;2023-05-29T07:35:01;8.02;;;6.47;;
40256;SDS011;25977;45.462;9.210;2023-05-29T07:37:27;13.30;;;8.00;;
40256;SDS011;25977;45.462;9.210;2023-05-29T07:39:55;13.52;;;7.82;;
40256;SDS011;25977;45.462;9.210;2023-05-29T07:42:40;10.90;;;7.20;;
40256;SDS011;25977;45.462;9.210;2023-05-29T07:45:07;14.27;;;7.72;;
40256;SDS011;25977;45.462;9.210;2023-05-29T07:47:32;10.60;;;7.72;;
40256;SDS011;25977;45.462;9.210;2023-05-29T07:49:58;12.10;;;7.57;;
40256;SDS011;25977;45.462;9.210;2023-05-29T07:52:26;10.07;;;7.85;;
40256;SDS011;25977;45.462;9.210;2023-05-29T07:54:53;12.45;;;7.90;;
40256;SDS011;25977;45.462;9.210;2023-05-29T07:57:18;8.52;;;7.70;;
40256;SDS011;25977;45.462;9.210;2023-05-29T07:59:46;9.68;;;7.10;;
40256;SDS011;25977;45.462;9.210;2023-05-29T08:02:14;8.32;;;6.88;;
40256;SDS011;25977;45.462;9.210;2023-05-29T08:05:13;11.82;;;7.38;;
40256;SDS011;25977;45.462;9.210;2023-05-29T08:07:39;8.07;;;6.88;;
40256;SDS011;25977;45.462;9.210;2023-05-29T08:10:05;11.48;;;8.32;;
40256;SDS011;25977;45.462;9.210;2023-05-29T08:12:32;11.35;;;7.78;;
40256;SDS011;25977;45.462;9.210;2023-05-29T08:15:00;9.90;;;7.80;;
40256;SDS011;25977;45.462;9.210;2023-05-29T08:17:27;11.43;;;7.60;;
40256;SDS011;25977;45.462;9.210;2023-05-29T08:19:53;11.63;;;8.57;;
40256;SDS011;25977;45.462;9.210;2023-05-29T08:22:18;13.43;;;8.55;;
40256;SDS011;25977;45.462;9.210;2023-05-29T08:24:44;14.30;;;8.10;;
40256;SDS011;25977;45.462;9.210;2023-05-29T08:27:10;10.93;;;7.35;;
40256;SDS011;25977;45.462;9.210;2023-05-29T08:29:35;11.57;;;7.07;;
40256;SDS011;25977;45.462;9.210;2023-05-29T08:32:01;12.88;;;6.72;;
40256;SDS011;25977;45.462;9.210;2023-05-29T08:34:27;11.20;;;5.80;;
40256;SDS011;25977;45.462;9.210;2023-05-29T08:36:53;9.95;;;6.93;;
40256;SDS011;25977;45.462;9.210;2023-05-29T08:39:20;7.63;;;6.28;;
40256;SDS011;25977;45.462;9.210;2023-05-29T08:44:32;9.48;;;6.30;;
40256;SDS011;25977;45.462;9.210;2023-05-29T08:47:00;8.40;;;7.00;;
40256;SDS011;25977;45.462;9.210;2023-05-29T08:49:37;7.82;;;6.97;;
40256;SDS011;25977;45.462;9.210;2023-05-29T08:52:15;7.88;;;7.07;;
40256;SDS011;25977;45.462;9.210;2023-05-29T08:54:42;8.25;;;7.32;;
40256;SDS011;25977;45.462;9.210;2023-05-29T08:57:08;7.30;;;6.30;;
40256;SDS011;25977;45.462;9.210;2023-05-29T08:59:36;7.80;;;6.35;;
40256;SDS011;25977;45.462;9.210;2023-05-29T09:02:04;7.60;;;6.68;;
40256;SDS011;25977;45.462;9.210;2023-05-29T09:04:30;9.98;;;7.20;;
40256;SDS011;25977;45.462;9.210;2023-05-29T09:06:57;9.27;;;6.65;;
40256;SDS011;25977;45.462;9.210;2023-05-29T09:09:24;13.35;;;7.90;;
40256;SDS011;25977;45.462;9.210;2023-05-29T09:11:52;11.65;;;8.15;;
40256;SDS011;25977;45.462;9.210;2023-05-29T09:14:37;7.85;;;7.03;;
40256;SDS011;25977;45.462;9.210;2023-05-29T09:17:05;11.63;;;7.03;;
40256;SDS011;25977;45.462;9.210;2023-05-29T09:19:33;9.52;;;7.30;;
40256;SDS011;25977;45.462;9.210;2023-05-29T09:22:03;12.73;;;7.18;;
40256;SDS011;25977;45.462;9.210;2023-05-29T09:24:34;9.73;;;7.95;;
40256;SDS011;25977;45.462;9.210;2023-05-29T09:27:04;8.57;;;7.10;;
40256;SDS011;25977;45.462;9.210;2023-05-29T09:29:31;9.27;;;7.97;;
40256;SDS011;25977;45.462;9.210;2023-05-29T09:31:57;8.55;;;7.32;;
40256;SDS011;25977;45.462;9.210;2023-05-29T09:34:24;8.90;;;8.00;;
40256;SDS011;25977;45.462;9.210;2023-05-29T09:36:53;10.65;;;8.40;;
40256;SDS011;25977;45.462;9.210;2023-05-29T09:39:49;9.93;;;7.55;;
40256;SDS011;25977;45.462;9.210;2023-05-29T09:42:16;8.40;;;7.47;;
40256;SDS011;25977;45.462;9.210;2023-05-29T09:44:44;10.13;;;7.60;;
40256;SDS011;25977;45.462;9.210;2023-05-29T09:47:14;11.73;;;7.05;;
40256;SDS011;25977;45.462;9.210;2023-05-29T09:49:41;10.38;;;8.38;;
40256;SDS011;25977;45.462;9.210;2023-05-29T09:52:10;13.82;;;9.52;;
40256;SDS011;25977;45.462;9.210;2023-05-29T09:54:39;10.65;;;8.85;;
40256;SDS011;25977;45.462;9.210;2023-05-29T09:57:07;9.65;;;8.52;;
40256;SDS011;25977;45.462;9.210;2023-05-29T09:59:34;11.13;;;7.68;;
40256;SDS011;25977;45.462;9.210;2023-05-29T10:02:02;9.35;;;8.18;;
40256;SDS011;25977;45.462;9.210;2023-05-29T10:04:32;10.75;;;7.97;;
40256;SDS011;25977;45.462;9.210;2023-05-29T10:07:05;10.68;;;7.85;;
40256;SDS011;25977;45.462;9.210;2023-05-29T10:10:01;9.10;;;6.88;;
40256;SDS011;25977;45.462;9.210;2023-05-29T10:12:28;10.00;;;7.93;;
40256;SDS011;25977;45.462;9.210;2023-05-29T10:14:59;15.52;;;8.60;;
40256;SDS011;25977;45.462;9.210;2023-05-29T10:17:28;11.80;;;7.20;;
40256;SDS011;25977;45.462;9.210;2023-05-29T10:19:58;11.43;;;7.60;;
40256;SDS011;25977;45.462;9.210;2023-05-29T10:22:27;10.43;;;8.10;;
40256;SDS011;25977;45.462;9.210;2023-05-29T10:24:56;9.82;;;7.57;;
40256;SDS011;25977;45.462;9.210;2023-05-29T10:27:22;13.10;;;8.27;;
40256;SDS011;25977;45.462;9.210;2023-05-29T10:32:42;9.40;;;7.90;;
40256;SDS011;25977;45.462;9.210;2023-05-29T10:35:24;10.57;;;7.32;;
40256;SDS011;25977;45.462;9.210;2023-05-29T10:38:02;11.43;;;7.57;;
40256;SDS011;25977;45.462;9.210;2023-05-29T10:40:36;9.10;;;7.05;;
40256;SDS011;25977;45.462;9.210;2023-05-29T10:43:02;14.35;;;8.10;;
40256;SDS011;25977;45.462;9.210;2023-05-29T10:53:02;9.70;;;8.00;;
40256;SDS011;25977;45.462;9.210;2023-05-29T10:55:37;11.07;;;8.35;;
40256;SDS011;25977;45.462;9.210;2023-05-29T10:58:06;11.20;;;7.75;;
40256;SDS011;25977;45.462;9.210;2023-05-29T11:00:33;10.18;;;7.97;;
40256;SDS011;25977;45.462;9.210;2023-05-29T11:03:08;10.57;;;7.97;;
40256;SDS011;25977;45.462;9.210;2023-05-29T11:05:40;25.13;;;6.72;;
40256;SDS011;25977;45.462;9.210;2023-05-29T11:14:00;12.63;;;9.27;;
40256;SDS011;25977;45.462;9.210;2023-05-29T11:18:58;15.93;;;8.45;;
40256;SDS011;25977;45.462;9.210;2023-05-29T11:21:33;18.92;;;8.85;;
40256;SDS011;25977;45.462;9.210;2023-05-29T11:24:02;12.00;;;9.38;;
40256;SDS011;25977;45.462;9.210;2023-05-29T11:26:31;15.30;;;9.50;;
40256;SDS011;25977;45.462;9.210;2023-05-29T11:28:58;24.52;;;10.55;;
40256;SDS011;25977;45.462;9.210;2023-05-29T11:31:25;11.15;;;8.00;;
40256;SDS011;25977;45.462;9.210;2023-05-29T11:33:52;8.77;;;7.65;;
40256;SDS011;25977;45.462;9.210;2023-05-29T11:36:23;9.95;;;7.63;;
40256;SDS011;25977;45.462;9.210;2023-05-29T11:38:51;12.15;;;6.70;;
40256;SDS011;25977;45.462;9.210;2023-05-29T11:41:17;11.18;;;7.72;;
40256;SDS011;25977;45.462;9.210;2023-05-29T11:43:43;8.55;;;7.75;;
40256;SDS011;25977;45.462;9.210;2023-05-29T11:46:28;9.77;;;7.70;;
40256;SDS011;25977;45.462;9.210;2023-05-29T11:48:57;8.20;;;7.15;;
40256;SDS011;25977;45.462;9.210;2023-05-29T11:51:25;8.82;;;6.88;;
40256;SDS011;25977;45.462;9.210;2023-05-29T11:53:51;10.48;;;6.45;;
40256;SDS011;25977;45.462;9.210;2023-05-29T11:56:18;8.85;;;7.07;;
40256;SDS011;25977;45.462;9.210;2023-05-29T11:58:44;10.27;;;7.75;;
40256;SDS011;25977;45.462;9.210;2023-05-29T12:01:10;10.18;;;7.07;;
40256;SDS011;25977;45.462;9.210;2023-05-29T12:03:42;9.18;;;6.40;;
40256;SDS011;25977;45.462;9.210;2023-05-29T12:06:09;10.23;;;6.70;;
40256;SDS011;25977;45.462;9.210;2023-05-29T12:08:38;10.07;;;6.82;;
40256;SDS011;25977;45.462;9.210;2023-05-29T12:11:04;14.02;;;7.75;;
40256;SDS011;25977;45.462;9.210;2023-05-29T12:13:30;11.43;;;7.55;;
40256;SDS011;25977;45.462;9.210;2023-05-29T12:16:00;11.70;;;8.10;;
40256;SDS011;25977;45.462;9.210;2023-05-29T12:18:28;10.20;;;8.00;;
40256;SDS011;25977;45.462;9.210;2023-05-29T12:20:58;11.20;;;8.60;;
40256;SDS011;25977;45.462;9.210;2023-05-29T12:23:28;10.32;;;7.75;;
40256;SDS011;25977;45.462;9.210;2023-05-29T12:25:54;10.98;;;7.28;;
40256;SDS011;25977;45.462;9.210;2023-05-29T12:28:21;9.82;;;8.75;;
40256;SDS011;25977;45.462;9.210;2023-05-29T12:30:47;10.48;;;7.45;;
40256;SDS011;25977;45.462;9.210;2023-05-29T12:36:12;11.85;;;7.78;;
40256;SDS011;25977;45.462;9.210;2023-05-29T12:38:47;16.00;;;6.88;;
40256;SDS011;25977;45.462;9.210;2023-05-29T12:41:29;11.57;;;7.53;;
40256;SDS011;25977;45.462;9.210;2023-05-29T12:44:01;10.82;;;7.65;;
40256;SDS011;25977;45.462;9.210;2023-05-29T12:46:28;8.35;;;7.03;;
40256;SDS011;25977;45.462;9.210;2023-05-29T12:49:13;9.20;;;6.93;;
40256;SDS011;25977;45.462;9.210;2023-05-29T12:51:46;11.95;;;7.40;;
40256;SDS011;25977;45.462;9.210;2023-05-29T12:54:13;8.05;;;7.05;;
40256;SDS011;25977;45.462;9.210;2023-05-29T12:56:40;10.05;;;7.63;;
40256;SDS011;25977;45.462;9.210;2023-05-29T12:59:09;8.70;;;6.95;;
40256;SDS011;25977;45.462;9.210;2023-05-29T13:01:36;6.40;;;5.80;;
40256;SDS011;25977;45.462;9.210;2023-05-29T13:04:05;9.02;;;6.65;;
40256;SDS011;25977;45.462;9.210;2023-05-29T13:06:32;10.77;;;7.10;;
40256;SDS011;25977;45.462;9.210;2023-05-29T13:09:02;13.05;;;7.15;;
40256;SDS011;25977;45.462;9.210;2023-05-29T13:11:28;11.10;;;6.50;;
40256;SDS011;25977;45.462;9.210;2023-05-29T13:13:53;10.27;;;7.07;;
40256;SDS011;25977;45.462;9.210;2023-05-29T13:16:19;7.53;;;6.38;;
40256;SDS011;25977;45.462;9.210;2023-05-29T13:18:48;9.38;;;7.07;;
40256;SDS011;25977;45.462;9.210;2023-05-29T13:21:14;11.15;;;6.75;;
40256;SDS011;25977;45.462;9.210;2023-05-29T13:23:39;9.88;;;6.60;;
40256;SDS011;25977;45.462;9.210;2023-05-29T13:26:05;7.80;;;6.55;;
40256;SDS011;25977;45.462;9.210;2023-05-29T13:28:31;8.93;;;7.13;;
40256;SDS011;25977;45.462;9.210;2023-05-29T13:30:58;9.80;;;7.03;;
40256;SDS011;25977;45.462;9.210;2023-05-29T13:33:24;7.13;;;6.00;;
40256;SDS011;25977;45.462;9.210;2023-05-29T13:35:50;7.47;;;5.80;;
40256;SDS011;25977;45.462;9.210;2023-05-29T13:38:15;11.32;;;6.28;;
40256;SDS011;25977;45.462;9.210;2023-05-29T13:40:44;9.18;;;6.30;;
40256;SDS011;25977;45.462;9.210;2023-05-29T13:43:10;8.35;;;5.95;;
40256;SDS011;25977;45.462;9.210;2023-05-29T13:45:35;7.95;;;6.95;;
40256;SDS011;25977;45.462;9.210;2023-05-29T13:48:01;9.80;;;6.22;;
40256;SDS011;25977;45.462;9.210;2023-05-29T13:50:27;7.20;;;6.20;;
40256;SDS011;25977;45.462;9.210;2023-05-29T13:52:53;8.93;;;5.97;;
40256;SDS011;25977;45.462;9.210;2023-05-29T13:55:18;7.82;;;5.57;;
40256;SDS011;25977;45.462;9.210;2023-05-29T13:57:44;7.05;;;6.05;;
40256;SDS011;25977;45.462;9.210;2023-05-29T14:00:10;8.00;;;5.28;;
40256;SDS011;25977;45.462;9.210;2023-05-29T14:02:36;7.72;;;6.00;;
40256;SDS011;25977;45.462;9.210;2023-05-29T14:05:02;5.03;;;4.38;;
40256;SDS011;25977;45.462;9.210;2023-05-29T14:07:28;5.18;;;4.70;;
40256;SDS011;25977;45.462;9.210;2023-05-29T14:09:54;10.48;;;5.88;;
40256;SDS011;25977;45.462;9.210;2023-05-29T14:12:20;6.43;;;5.43;;
40256;SDS011;25977;45.462;9.210;2023-05-29T14:14:45;6.55;;;5.78;;
40256;SDS011;25977;45.462;9.210;2023-05-29T14:17:11;10.45;;;5.65;;
40256;SDS011;25977;45.462;9.210;2023-05-29T14:19:38;5.95;;;5.22;;
40256;SDS011;25977;45.462;9.210;2023-05-29T14:22:04;7.68;;;4.78;;
40256;SDS011;25977;45.462;9.210;2023-05-29T14:24:30;8.55;;;6.38;;
40256;SDS011;25977;45.462;9.210;2023-05-29T14:26:55;5.70;;;5.15;;
40256;SDS011;25977;45.462;9.210;2023-05-29T14:29:21;8.02;;;6.45;;
40256;SDS011;25977;45.462;9.210;2023-05-29T14:31:47;8.05;;;5.55;;
40256;SDS011;25977;45.462;9.210;2023-05-29T14:34:12;5.75;;;5.25;;
40256;SDS011;25977;45.462;9.210;2023-05-29T14:36:39;5.90;;;5.22;;
40256;SDS011;25977;45.462;9.210;2023-05-29T14:39:06;6.10;;;5.05;;
40256;SDS011;25977;45.462;9.210;2023-05-29T14:41:32;8.27;;;6.18;;
40256;SDS011;25977;45.462;9.210;2023-05-29T14:44:00;8.40;;;5.93;;
40256;SDS011;25977;45.462;9.210;2023-05-29T14:46:25;6.45;;;5.20;;
40256;SDS011;25977;45.462;9.210;2023-05-29T14:48:53;5.90;;;4.95;;
40256;SDS011;25977;45.462;9.210;2023-05-29T14:51:19;7.97;;;5.22;;
40256;SDS011;25977;45.462;9.210;2023-05-29T14:53:45;6.40;;;5.43;;
40256;SDS011;25977;45.462;9.210;2023-05-29T14:56:11;9.52;;;5.07;;
40256;SDS011;25977;45.462;9.210;2023-05-29T14:58:37;6.93;;;4.93;;
40256;SDS011;25977;45.462;9.210;2023-05-29T15:01:03;6.45;;;5.43;;
40256;SDS011;25977;45.462;9.210;2023-05-29T15:03:28;8.68;;;6.18;;
40256;SDS011;25977;45.462;9.210;2023-05-29T15:05:54;6.63;;;5.18;;
40256;SDS011;25977;45.462;9.210;2023-05-29T15:08:20;5.72;;;5.20;;
40256;SDS011;25977;45.462;9.210;2023-05-29T15:10:46;4.72;;;4.32;;
40256;SDS011;25977;45.462;9.210;2023-05-29T15:13:11;9.88;;;6.10;;